createdAt,value
2023-03-12T17:15:52.800Z,100352.53
2023-03-12T17:18:19.686Z,100353.56
2023-03-12T17:20:47.687Z,100351.50
2023-03-12T17:23:14.246Z,100350.84
2023-03-12T17:25:42.972Z,100355.59
2023-03-12T17:28:09.941Z,100369.72
2023-03-12T17:30:37.293Z,100373.88
2023-03-12T17:33:09.597Z,100372.59
2023-03-12T17:35:36.238Z,100369.59
2023-03-12T17:38:02.898Z,100368.25
2023-03-12T17:40:29.871Z,100375.75
2023-03-12T17:42:56.607Z,100379.97
2023-03-12T17:45:24.449Z,100392.69
2023-03-12T17:47:51.102Z,100383.72
2023-03-12T17:50:18.236Z,100381.97
2023-03-12T17:52:45.289Z,100387.47
2023-03-12T17:55:12.064Z,100392.59
2023-03-12T17:57:39.033Z,100393.94
2023-03-12T18:00:15.166Z,100389.28
2023-03-12T18:02:42.653Z,100394.47
2023-03-12T18:05:11.273Z,100386.38
2023-03-12T18:07:38.648Z,100399.50
2023-03-12T18:10:09.054Z,100397.28
2023-03-12T18:12:37.981Z,100398.06
2023-03-12T18:15:09.161Z,100398.28
2023-03-12T18:17:35.663Z,100393.00
2023-03-12T18:20:08.249Z,100394.69
2023-03-12T18:22:35.186Z,100399.84
2023-03-12T18:25:01.920Z,100403.56
2023-03-12T18:27:28.428Z,100407.19
2023-03-12T18:29:54.861Z,100389.00
2023-03-12T18:32:21.382Z,100401.66
2023-03-12T18:34:48.124Z,100395.41
2023-03-12T18:37:14.716Z,100410.72
2023-03-12T18:39:41.223Z,100408.56
2023-03-12T18:42:07.661Z,100412.03
2023-03-12T18:44:34.097Z,100402.16
2023-03-12T18:47:00.692Z,100421.41
2023-03-12T18:49:27.412Z,100421.13
2023-03-12T18:51:56.011Z,100410.91
2023-03-12T18:54:24.733Z,100409.41
2023-03-12T18:56:51.709Z,100411.22
2023-03-12T18:59:18.255Z,100406.06
2023-03-12T19:01:44.798Z,100401.66
2023-03-12T19:04:15.583Z,100399.44
2023-03-12T19:06:50.734Z,100403.31
2023-03-12T19:09:18.602Z,100386.06
2023-03-12T19:11:47.677Z,100382.34
2023-03-12T19:14:14.348Z,100389.25
2023-03-12T19:16:40.893Z,100382.22
2023-03-12T19:19:07.468Z,100380.28
2023-03-12T19:21:33.909Z,100383.88
2023-03-12T19:24:00.465Z,100382.59
2023-03-12T19:26:26.963Z,100369.66
2023-03-12T19:28:53.536Z,100382.13
2023-03-12T19:31:20.115Z,100388.25
2023-03-12T19:33:46.660Z,100380.69
2023-03-12T19:36:13.165Z,100382.59
2023-03-12T19:38:39.875Z,100368.66
2023-03-12T19:41:08.579Z,100371.88
2023-03-12T19:43:36.227Z,100376.94
2023-03-12T19:46:03.392Z,100385.25
2023-03-12T19:48:29.918Z,100383.34
2023-03-12T19:50:56.448Z,100394.13
2023-03-12T19:53:23.102Z,100387.16
2023-03-12T19:55:50.151Z,100376.94
2023-03-12T19:58:17.350Z,100378.06
2023-03-12T20:00:44.691Z,100378.03
2023-03-12T20:03:11.263Z,100374.63
2023-03-12T20:05:37.796Z,100382.53
2023-03-12T20:08:04.307Z,100383.00
2023-03-12T20:10:32.225Z,100376.66
2023-03-12T20:12:58.723Z,100377.53
2023-03-12T20:15:25.338Z,100372.75
2023-03-12T20:17:54.653Z,100358.44
2023-03-12T20:20:21.297Z,100359.91
2023-03-12T20:22:47.795Z,100351.53
2023-03-12T20:25:14.447Z,100347.28
2023-03-12T20:27:40.944Z,100350.78
2023-03-12T20:30:08.236Z,100345.59
2023-03-12T20:32:34.809Z,100350.03
2023-03-12T20:35:01.359Z,100348.88
2023-03-12T20:37:27.837Z,100352.72
2023-03-12T20:39:56.940Z,100345.09
2023-03-12T20:42:23.475Z,100326.69
2023-03-12T20:44:50.031Z,100327.13
2023-03-12T20:47:16.516Z,100338.53
2023-03-12T20:49:42.984Z,100344.88
2023-03-12T20:52:09.417Z,100326.13
2023-03-12T20:54:35.926Z,100318.78
2023-03-12T20:57:02.469Z,100313.38
2023-03-12T20:59:28.946Z,100312.44
2023-03-12T21:01:55.579Z,100313.72
2023-03-12T21:04:22.053Z,100304.88
2023-03-12T21:06:51.565Z,100292.00
2023-03-12T21:09:18.500Z,100302.59
2023-03-12T21:11:45.009Z,100291.66
2023-03-12T21:14:11.494Z,100297.53
2023-03-12T21:16:37.990Z,100291.19
2023-03-12T21:19:04.520Z,100297.28
2023-03-12T21:21:31.951Z,100280.72
2023-03-12T21:23:58.449Z,100280.00
2023-03-12T21:26:24.928Z,100265.78
2023-03-12T21:28:51.442Z,100272.44
2023-03-12T21:31:18.414Z,100273.69
2023-03-12T21:33:45.223Z,100259.09
2023-03-12T21:36:13.437Z,100254.13
2023-03-12T21:38:40.992Z,100257.00
2023-03-12T21:41:09.730Z,100264.91
2023-03-12T21:43:36.978Z,100254.91
2023-03-12T21:46:08.160Z,100251.56
2023-03-12T21:48:35.257Z,100257.94
2023-03-12T21:51:07.453Z,100253.31
2023-03-12T21:53:34.584Z,100256.38
2023-03-12T21:56:02.255Z,100250.00
2023-03-12T21:58:29.938Z,100249.84
2023-03-12T22:01:05.679Z,100237.81
2023-03-12T22:03:32.313Z,100249.34
2023-03-12T22:05:58.802Z,100244.63
2023-03-12T22:08:25.306Z,100228.59
2023-03-12T22:10:51.992Z,100225.94
2023-03-12T22:13:18.449Z,100213.19
2023-03-12T22:15:57.000Z,100213.34
2023-03-12T22:18:23.818Z,100215.97
2023-03-12T22:20:51.857Z,100214.69
2023-03-12T22:23:18.734Z,100190.69
2023-03-12T22:25:45.330Z,100204.44
2023-03-12T22:28:11.804Z,100203.69
2023-03-12T22:30:38.377Z,100200.84
2023-03-12T22:33:04.873Z,100192.66
2023-03-12T22:35:31.357Z,100189.88
2023-03-12T22:37:57.833Z,100189.53
2023-03-12T22:40:25.405Z,100180.31
2023-03-12T22:42:53.552Z,100178.94
2023-03-12T22:45:20.043Z,100172.31
2023-03-12T22:47:46.595Z,100170.69
2023-03-12T22:50:13.178Z,100162.88
2023-03-12T22:52:39.715Z,100157.81
2023-03-12T22:55:06.677Z,100159.41
2023-03-12T22:57:34.257Z,100157.59
2023-03-12T23:00:00.809Z,100150.53
2023-03-12T23:02:27.329Z,100146.78
2023-03-12T23:04:53.920Z,100130.72
2023-03-12T23:07:20.462Z,100139.47
2023-03-12T23:09:47.279Z,100118.88
2023-03-12T23:12:13.892Z,100115.91
2023-03-12T23:14:40.377Z,100114.66
2023-03-12T23:17:06.825Z,100111.09
2023-03-12T23:19:34.010Z,100110.47
2023-03-12T23:22:00.503Z,100092.84
2023-03-12T23:24:29.206Z,100093.34
2023-03-12T23:26:57.134Z,100101.53
2023-03-12T23:29:23.655Z,100090.41
2023-03-12T23:31:50.254Z,100090.56
2023-03-12T23:34:16.784Z,100083.53
2023-03-12T23:36:44.416Z,100077.00
2023-03-12T23:39:10.891Z,100071.44
2023-03-12T23:41:37.706Z,100065.88
2023-03-12T23:44:04.442Z,100062.38
2023-03-12T23:46:31.155Z,100061.63
2023-03-12T23:48:58.184Z,100048.78
2023-03-12T23:51:28.475Z,100047.13
2023-03-12T23:54:01.023Z,100031.41
2023-03-12T23:56:32.448Z,100038.50
2023-03-12T23:58:59.040Z,100034.06
